createdAt,value
2023-03-16T00:02:12.317Z,25.67
2023-03-16T00:04:39.618Z,16.00
2023-03-16T00:07:11.695Z,23.00
2023-03-16T00:09:41.458Z,26.00
2023-03-16T00:12:16.152Z,23.00
2023-03-16T00:14:45.088Z,14.00
2023-03-16T00:17:19.461Z,16.33
2023-03-16T00:19:57.441Z,22.67
2023-03-16T00:22:28.475Z,27.00
2023-03-16T00:24:56.126Z,29.33
2023-03-16T00:27:25.018Z,24.33
2023-03-16T00:29:56.934Z,26.33
2023-03-16T00:32:27.398Z,21.33
2023-03-16T00:34:55.129Z,27.67
2023-03-16T00:37:23.902Z,23.33
2023-03-16T00:39:52.127Z,26.33
2023-03-16T00:42:20.413Z,23.00
2023-03-16T00:44:47.974Z,17.33
2023-03-16T00:47:15.333Z,22.67
2023-03-16T00:49:44.408Z,25.00
2023-03-16T00:52:16.074Z,22.33
2023-03-16T00:54:45.269Z,25.33
2023-03-16T00:57:15.034Z,25.67
2023-03-16T00:59:42.513Z,27.00
2023-03-16T01:02:10.910Z,16.33
2023-03-16T01:04:38.256Z,23.33
2023-03-16T01:07:06.706Z,23.00
2023-03-16T01:09:56.833Z,26.00
2023-03-16T01:12:42.625Z,21.67
2023-03-16T01:15:23.857Z,16.33
2023-03-16T01:18:08.732Z,22.00
2023-03-16T01:21:04.430Z,16.33
2023-03-16T01:23:33.295Z,13.00
2023-03-16T01:26:00.827Z,8.00
2023-03-16T01:28:30.451Z,14.67
2023-03-16T01:31:02.238Z,18.00
2023-03-16T01:33:30.043Z,15.00
2023-03-16T01:36:02.085Z,11.00
2023-03-16T01:38:29.262Z,8.00
2023-03-16T01:40:56.941Z,5.00
2023-03-16T01:43:29.201Z,5.00
2023-03-16T01:46:03.051Z,2.00
2023-03-16T01:48:37.604Z,1.33
2023-03-16T01:51:21.482Z,2.00
2023-03-16T01:53:54.038Z,1.00
2023-03-16T01:56:27.778Z,2.00
2023-03-16T01:58:59.083Z,4.00
2023-03-16T02:01:27.977Z,2.00
2023-03-16T02:04:14.137Z,5.00
2023-03-16T02:06:41.450Z,2.00
2023-03-16T02:09:09.509Z,3.33
2023-03-16T02:11:43.763Z,2.00
2023-03-16T02:14:21.055Z,2.00
2023-03-16T02:17:08.735Z,1.33
2023-03-16T02:20:19.703Z,1.00
2023-03-16T02:23:07.480Z,0.00
2023-03-16T02:25:58.136Z,0.00
2023-03-16T02:28:43.172Z,5.00
2023-03-16T02:31:10.252Z,7.67
2023-03-16T02:33:37.405Z,29.00
2023-03-16T02:36:09.888Z,21.00
2023-03-16T02:38:36.895Z,18.33
2023-03-16T02:41:14.092Z,14.00
2023-03-16T02:43:59.306Z,13.00
2023-03-16T02:46:29.302Z,8.67
2023-03-16T02:49:03.811Z,10.00
2023-03-16T02:51:32.642Z,7.00
2023-03-16T02:53:59.846Z,1.00
2023-03-16T02:56:28.282Z,3.33
2023-03-16T02:58:57.659Z,5.00
2023-03-16T03:01:25.335Z,2.00
2023-03-16T03:03:52.476Z,1.00
2023-03-16T03:06:19.750Z,4.00
2023-03-16T03:08:46.756Z,2.00
2023-03-16T03:11:15.850Z,4.00
2023-03-16T03:13:44.761Z,2.67
2023-03-16T03:16:12.371Z,2.00
2023-03-16T03:18:39.962Z,1.00
2023-03-16T03:21:08.896Z,5.00
2023-03-16T03:23:35.911Z,2.00
2023-03-16T03:26:04.587Z,4.67
2023-03-16T03:28:31.963Z,4.00
2023-03-16T03:30:59.022Z,4.67
2023-03-16T03:33:26.159Z,5.00
2023-03-16T03:35:57.970Z,2.00
2023-03-16T03:38:26.621Z,5.33
2023-03-16T03:40:54.983Z,4.00
2023-03-16T03:43:22.242Z,7.33
2023-03-16T03:45:49.509Z,1.00
2023-03-16T03:48:16.543Z,4.00
2023-03-16T03:50:43.558Z,2.00
2023-03-16T03:53:10.535Z,3.33
2023-03-16T03:55:37.572Z,4.33
2023-03-16T03:58:04.729Z,10.67
2023-03-16T04:00:31.973Z,4.00
2023-03-16T04:02:59.087Z,8.00
2023-03-16T04:05:29.320Z,5.00
2023-03-16T04:07:57.828Z,10.00
2023-03-16T04:10:27.236Z,10.67
2023-03-16T04:12:56.228Z,7.00
2023-03-16T04:15:23.367Z,4.67
2023-03-16T04:17:50.935Z,7.00
2023-03-16T04:20:19.830Z,8.67
2023-03-16T04:22:47.791Z,11.33
2023-03-16T04:25:17.416Z,4.00
2023-03-16T04:27:44.534Z,6.33
2023-03-16T04:30:15.175Z,10.00
2023-03-16T04:32:42.341Z,8.00
2023-03-16T04:35:10.601Z,13.00
2023-03-16T04:37:37.873Z,19.00
2023-03-16T04:40:11.177Z,14.67
2023-03-16T04:42:38.316Z,14.00
2023-03-16T04:45:05.510Z,20.67
2023-03-16T04:47:34.151Z,23.33
2023-03-16T04:50:02.991Z,18.00
2023-03-16T04:52:30.271Z,12.67
2023-03-16T04:54:57.303Z,10.33
2023-03-16T04:57:24.653Z,10.00
2023-03-16T04:59:51.909Z,8.67
2023-03-16T05:02:20.237Z,5.67
2023-03-16T05:04:48.128Z,6.33
2023-03-16T05:07:15.292Z,7.00
2023-03-16T05:09:42.336Z,11.00
2023-03-16T05:12:09.582Z,6.00
2023-03-16T05:14:36.801Z,4.00
2023-03-16T05:17:04.123Z,7.67
2023-03-16T05:19:31.180Z,10.33
2023-03-16T05:21:58.830Z,9.33
2023-03-16T05:24:25.888Z,13.00
2023-03-16T05:26:53.009Z,13.33
2023-03-16T05:29:19.991Z,12.33
2023-03-16T05:31:48.002Z,22.00
2023-03-16T05:34:15.562Z,14.00
2023-03-16T05:36:42.626Z,14.00
2023-03-16T05:39:09.583Z,9.33
2023-03-16T05:41:36.833Z,10.00
2023-03-16T05:44:04.838Z,12.33
2023-03-16T05:46:32.302Z,4.00
2023-03-16T05:48:59.585Z,9.00
2023-03-16T05:51:29.232Z,9.33
2023-03-16T05:53:57.696Z,13.00
2023-03-16T05:56:25.978Z,14.67
2023-03-16T05:58:54.286Z,15.67
2023-03-16T06:01:21.979Z,14.67
2023-03-16T06:03:52.326Z,8.00
2023-03-16T06:06:21.867Z,7.00
2023-03-16T06:08:49.211Z,14.00
2023-03-16T06:11:16.350Z,7.00
2023-03-16T06:13:43.595Z,5.67
2023-03-16T06:16:11.934Z,10.00
2023-03-16T06:18:39.924Z,7.00
2023-03-16T06:21:07.502Z,8.00
2023-03-16T06:23:34.755Z,7.00
2023-03-16T06:26:02.246Z,5.00
2023-03-16T06:28:29.432Z,15.00
2023-03-16T06:30:58.527Z,21.00
2023-03-16T06:33:25.728Z,17.00
2023-03-16T06:35:52.894Z,18.33
2023-03-16T06:38:20.380Z,18.00
2023-03-16T06:40:52.363Z,11.00
2023-03-16T06:43:19.454Z,18.67
2023-03-16T06:45:46.620Z,17.67
2023-03-16T06:48:13.726Z,20.67
2023-03-16T06:50:40.794Z,17.00
2023-03-16T06:53:08.537Z,19.33
2023-03-16T06:55:35.553Z,20.00
2023-03-16T06:58:02.631Z,18.00
2023-03-16T07:00:31.157Z,24.33
2023-03-16T07:03:00.392Z,26.67
2023-03-16T07:05:27.682Z,29.33
2023-03-16T07:07:54.759Z,26.33
2023-03-16T07:10:22.104Z,60.75
2023-03-16T07:12:50.647Z,51.33
2023-03-16T07:15:17.694Z,50.33
2023-03-16T07:17:44.686Z,56.00
2023-03-16T07:20:13.024Z,55.00
2023-03-16T07:22:40.492Z,46.00
2023-03-16T07:25:08.471Z,51.33
2023-03-16T07:27:35.612Z,49.33
2023-03-16T07:30:02.685Z,52.33
2023-03-16T07:32:29.792Z,48.00
2023-03-16T07:34:59.274Z,46.00
2023-03-16T07:37:26.760Z,47.67
2023-03-16T07:39:53.815Z,47.00
2023-03-16T07:42:20.836Z,44.00
2023-03-16T07:44:49.456Z,45.67
2023-03-16T07:47:17.929Z,46.67
2023-03-16T07:49:44.935Z,38.33
2023-03-16T07:52:14.211Z,42.33
2023-03-16T07:54:41.803Z,42.00
2023-03-16T07:57:09.471Z,46.67
2023-03-16T07:59:36.531Z,45.00
2023-03-16T08:02:04.249Z,44.33
2023-03-16T08:04:31.639Z,40.67
2023-03-16T08:07:00.630Z,32.33
2023-03-16T08:09:27.800Z,40.33
2023-03-16T08:11:54.987Z,44.67
2023-03-16T08:14:21.876Z,34.67
2023-03-16T08:16:48.828Z,50.00
2023-03-16T08:19:17.607Z,42.33
2023-03-16T08:21:59.997Z,46.67
2023-03-16T08:24:29.774Z,46.00
2023-03-16T08:26:57.865Z,38.33
2023-03-16T08:29:26.248Z,49.33
2023-03-16T08:31:56.551Z,42.67
2023-03-16T08:34:24.890Z,31.33
2023-03-16T08:36:51.913Z,42.67
2023-03-16T08:39:18.906Z,43.67
2023-03-16T08:41:47.278Z,46.67
2023-03-16T08:44:14.401Z,43.00
2023-03-16T08:46:42.697Z,42.33
2023-03-16T08:49:09.734Z,38.33
2023-03-16T08:51:37.324Z,39.00
2023-03-16T08:54:04.541Z,47.00
2023-03-16T08:56:31.479Z,51.00
2023-03-16T08:58:58.787Z,45.00
2023-03-16T09:01:26.985Z,48.00
2023-03-16T09:03:55.292Z,45.33
2023-03-16T09:06:22.724Z,45.67
2023-03-16T09:08:49.660Z,39.67
2023-03-16T09:11:19.098Z,38.00
2023-03-16T09:13:47.512Z,37.33
2023-03-16T09:16:16.673Z,37.00
2023-03-16T09:18:44.125Z,25.75
2023-03-16T09:21:14.099Z,32.25
2023-03-16T09:23:44.793Z,23.75
2023-03-16T09:26:13.547Z,37.33
2023-03-16T09:28:42.389Z,24.25
2023-03-16T09:31:15.659Z,20.25
2023-03-16T09:33:43.132Z,15.00
2023-03-16T09:36:12.072Z,21.25
2023-03-16T09:38:39.519Z,22.25
2023-03-16T09:41:23.972Z,29.75
2023-03-16T09:44:23.279Z,23.75
2023-03-16T09:46:51.867Z,18.50
2023-03-16T09:49:28.633Z,26.25
2023-03-16T09:52:09.309Z,29.00
2023-03-16T09:54:59.640Z,27.00
2023-03-16T09:57:33.127Z,18.50
2023-03-16T10:00:24.370Z,11.00
2023-03-16T10:02:58.003Z,13.00
2023-03-16T10:05:27.444Z,30.25
2023-03-16T10:08:06.107Z,18.75
2023-03-16T10:10:45.301Z,20.50
2023-03-16T10:13:35.719Z,17.25
2023-03-16T10:16:09.849Z,16.00
2023-03-16T10:18:45.132Z,20.75
2023-03-16T10:21:18.507Z,14.00
2023-03-16T10:23:48.753Z,14.00
2023-03-16T10:26:24.930Z,17.00
2023-03-16T10:28:53.203Z,12.25
2023-03-16T10:31:23.216Z,15.50
2023-03-16T10:33:58.731Z,16.00
2023-03-16T10:36:33.748Z,14.25
2023-03-16T10:39:07.042Z,17.00
2023-03-16T10:41:39.566Z,16.00
2023-03-16T10:44:21.905Z,18.00
2023-03-16T10:47:08.728Z,15.25
2023-03-16T10:49:47.261Z,11.50
2023-03-16T10:52:20.544Z,10.25
2023-03-16T10:54:57.636Z,15.00
2023-03-16T10:57:37.829Z,13.75
2023-03-16T11:00:25.980Z,12.25
2023-03-16T11:02:55.568Z,11.25
2023-03-16T11:05:32.804Z,11.00
2023-03-16T11:08:14.085Z,13.00
2023-03-16T11:11:08.615Z,12.75
2023-03-16T11:13:38.767Z,13.75
2023-03-16T11:16:21.734Z,11.50
2023-03-16T11:18:54.759Z,13.50
2023-03-16T11:21:43.259Z,12.00
2023-03-16T11:24:20.097Z,10.00
2023-03-16T11:26:55.108Z,11.00
2023-03-16T11:29:39.066Z,7.75
2023-03-16T11:32:14.178Z,7.00
2023-03-16T11:34:43.645Z,6.50
2023-03-16T11:37:35.278Z,8.25
2023-03-16T11:40:34.538Z,8.75
2023-03-16T11:43:12.288Z,8.25
2023-03-16T11:45:52.008Z,7.75
2023-03-16T11:48:19.031Z,6.75
2023-03-16T11:51:11.580Z,6.00
2023-03-16T11:53:57.479Z,8.75
2023-03-16T11:56:39.439Z,4.25
2023-03-16T11:59:18.259Z,5.00
2023-03-16T12:02:08.160Z,4.00
2023-03-16T12:04:46.632Z,4.50
2023-03-16T12:07:24.829Z,7.00
2023-03-16T12:10:01.835Z,8.00
2023-03-16T12:12:56.382Z,5.75
2023-03-16T12:15:30.355Z,4.25
2023-03-16T12:18:03.080Z,6.00
2023-03-16T12:20:42.147Z,6.00
2023-03-16T12:23:23.021Z,3.25
2023-03-16T12:25:51.511Z,3.75
2023-03-16T12:28:24.305Z,2.50
2023-03-16T12:31:05.188Z,2.25
2023-03-16T12:33:50.479Z,4.50
2023-03-16T12:36:18.140Z,6.00
2023-03-16T12:38:48.232Z,2.50
2023-03-16T12:41:55.698Z,3.00
2023-03-16T12:44:46.845Z,4.00
2023-03-16T12:47:32.228Z,4.25
2023-03-16T12:50:11.594Z,4.00
2023-03-16T12:52:47.181Z,2.50
2023-03-16T12:55:19.023Z,2.00
2023-03-16T12:57:49.987Z,3.50
2023-03-16T13:00:18.394Z,4.00
2023-03-16T13:02:53.816Z,3.00
2023-03-16T13:05:45.943Z,2.00
2023-03-16T13:08:17.561Z,3.00
2023-03-16T13:11:10.399Z,3.00
2023-03-16T13:14:13.619Z,3.00
2023-03-16T13:16:41.204Z,3.00
2023-03-16T13:19:26.220Z,2.50
2023-03-16T13:22:27.345Z,1.50
2023-03-16T13:25:14.231Z,3.75
2023-03-16T13:27:46.178Z,2.75
2023-03-16T13:30:19.001Z,3.00
2023-03-16T13:32:46.992Z,7.25
2023-03-16T13:35:21.685Z,6.00
2023-03-16T13:37:49.590Z,3.50
2023-03-16T13:40:21.811Z,2.75
2023-03-16T13:42:53.096Z,3.00
2023-03-16T13:45:28.480Z,3.00
2023-03-16T13:47:55.352Z,3.75
2023-03-16T13:50:22.534Z,3.00
2023-03-16T13:52:58.967Z,4.00
2023-03-16T13:55:33.792Z,4.50
2023-03-16T13:58:02.000Z,5.00
2023-03-16T14:00:35.576Z,4.00
2023-03-16T14:03:14.875Z,7.25
2023-03-16T14:05:42.092Z,4.00
2023-03-16T14:08:18.113Z,4.00
2023-03-16T14:10:46.007Z,4.00
2023-03-16T14:13:28.089Z,7.00
2023-03-16T14:16:04.681Z,5.50
2023-03-16T14:18:37.446Z,6.00
2023-03-16T14:21:10.081Z,6.00
2023-03-16T14:23:42.174Z,4.00
2023-03-16T14:26:18.946Z,6.75
2023-03-16T14:29:18.570Z,8.25
2023-03-16T14:31:46.001Z,8.00
2023-03-16T14:34:38.730Z,3.50
2023-03-16T14:37:06.913Z,6.00
2023-03-16T14:39:34.029Z,5.50
2023-03-16T14:42:07.462Z,4.25
2023-03-16T14:44:37.084Z,3.75
2023-03-16T14:47:07.354Z,3.00
2023-03-16T14:49:38.109Z,4.00
2023-03-16T14:52:08.538Z,3.50
2023-03-16T14:54:35.658Z,6.50
2023-03-16T14:57:05.957Z,6.75
2023-03-16T14:59:34.115Z,3.75
2023-03-16T15:02:03.541Z,4.00
2023-03-16T15:04:34.161Z,3.00
2023-03-16T15:07:22.087Z,3.25
2023-03-16T15:09:51.739Z,3.50
2023-03-16T15:12:20.420Z,4.25
2023-03-16T15:15:06.428Z,3.00
2023-03-16T15:17:33.945Z,3.00
2023-03-16T15:20:01.468Z,7.25
2023-03-16T15:22:37.808Z,3.50
2023-03-16T15:25:25.075Z,3.75
2023-03-16T15:27:53.862Z,6.00
2023-03-16T15:30:25.024Z,3.25
2023-03-16T15:32:52.883Z,3.00
2023-03-16T15:35:20.904Z,3.00
2023-03-16T15:37:48.790Z,3.25
2023-03-16T15:40:16.979Z,3.00
2023-03-16T15:42:46.768Z,6.00
2023-03-16T15:45:17.754Z,4.00
2023-03-16T15:47:45.241Z,2.00
2023-03-16T15:50:14.183Z,2.50
2023-03-16T15:52:47.287Z,3.00
2023-03-16T15:55:21.631Z,1.00
2023-03-16T15:57:51.761Z,1.50
2023-03-16T16:00:29.747Z,3.75
2023-03-16T16:02:58.286Z,2.75
2023-03-16T16:05:26.081Z,3.50
2023-03-16T16:07:55.152Z,2.00
2023-03-16T16:10:22.417Z,1.00
2023-03-16T16:12:51.761Z,1.00
2023-03-16T16:15:26.290Z,2.75
2023-03-16T16:18:19.093Z,0.00
2023-03-16T16:20:42.058Z,1.00
2023-03-16T16:23:10.637Z,2.00
2023-03-16T16:25:41.648Z,1.00
2023-03-16T16:28:18.897Z,0.00
2023-03-16T16:30:46.851Z,3.00
2023-03-16T16:33:27.482Z,1.50
2023-03-16T16:35:56.507Z,1.00
2023-03-16T16:38:24.466Z,1.00
2023-03-16T16:40:58.376Z,0.00
2023-03-16T16:43:42.006Z,0.00
2023-03-16T16:46:20.054Z,0.00
2023-03-16T16:49:13.407Z,0.00
2023-03-16T16:51:40.299Z,0.00
2023-03-16T16:54:31.452Z,0.50
2023-03-16T16:57:00.178Z,1.00
2023-03-16T16:59:32.445Z,0.75
2023-03-16T17:02:02.084Z,0.75
2023-03-16T17:04:30.153Z,1.00
2023-03-16T17:07:01.218Z,6.00
2023-03-16T17:09:29.264Z,6.00
2023-03-16T17:11:59.938Z,3.50
2023-03-16T17:14:31.688Z,6.25
2023-03-16T17:17:02.921Z,5.00
2023-03-16T17:19:29.985Z,25.00
2023-03-16T17:21:58.798Z,32.00
2023-03-16T17:24:25.746Z,29.33
2023-03-16T17:26:57.687Z,27.67
2023-03-16T17:29:31.776Z,37.67
2023-03-16T17:32:05.036Z,42.00
2023-03-16T17:34:34.349Z,40.67
2023-03-16T17:37:02.213Z,38.67
2023-03-16T17:39:32.004Z,49.33
2023-03-16T17:42:09.904Z,50.00
2023-03-16T17:44:42.979Z,48.00
2023-03-16T17:47:15.345Z,51.33
2023-03-16T17:49:42.601Z,53.67
2023-03-16T17:52:18.980Z,48.00
2023-03-16T17:54:47.790Z,45.67
2023-03-16T17:57:24.833Z,40.67
2023-03-16T17:59:52.409Z,34.33
2023-03-16T18:02:37.527Z,40.00
2023-03-16T18:05:05.802Z,44.33
2023-03-16T18:07:32.655Z,44.33
2023-03-16T18:09:59.539Z,43.67
2023-03-16T18:12:26.602Z,45.00
2023-03-16T18:14:58.668Z,42.33
2023-03-16T18:17:33.824Z,38.00
2023-03-16T18:20:00.663Z,27.00
2023-03-16T18:22:28.073Z,21.33
2023-03-16T18:24:55.548Z,26.00
2023-03-16T18:27:23.182Z,19.67
2023-03-16T18:29:50.563Z,19.00
2023-03-16T18:32:29.639Z,15.00
2023-03-16T18:34:57.556Z,15.00
2023-03-16T18:37:30.159Z,10.33
2023-03-16T18:39:57.121Z,23.67
2023-03-16T18:42:27.912Z,26.33
2023-03-16T18:44:55.052Z,26.00
2023-03-16T18:47:31.553Z,39.33
2023-03-16T18:49:58.874Z,31.67
2023-03-16T18:52:29.437Z,4.00
2023-03-16T18:54:57.942Z,111.50
2023-03-16T18:57:29.864Z,92.25
2023-03-16T18:59:56.738Z,85.50
2023-03-16T19:02:32.516Z,78.00
2023-03-16T19:05:02.374Z,67.00
2023-03-16T19:07:35.245Z,61.00
2023-03-16T19:10:08.771Z,49.25
2023-03-16T19:12:35.531Z,49.00
2023-03-16T19:15:02.359Z,22.00
2023-03-16T19:17:29.205Z,37.67
2023-03-16T19:19:56.044Z,25.67
2023-03-16T19:22:24.380Z,21.33
2023-03-16T19:24:54.703Z,20.67
2023-03-16T19:27:25.827Z,11.67
2023-03-16T19:29:54.683Z,37.33
2023-03-16T19:32:22.489Z,45.00
2023-03-16T19:34:49.525Z,45.00
2023-03-16T19:37:19.865Z,30.33
2023-03-16T19:39:47.022Z,46.25
2023-03-16T19:42:25.996Z,58.00
2023-03-16T19:44:52.884Z,48.00
2023-03-16T19:47:28.481Z,40.67
2023-03-16T19:49:55.537Z,30.00
2023-03-16T19:52:22.450Z,25.33
2023-03-16T19:54:49.558Z,25.67
2023-03-16T19:57:19.680Z,27.00
2023-03-16T19:59:50.745Z,18.00
2023-03-16T20:02:28.343Z,47.00
2023-03-16T20:04:55.969Z,75.00
2023-03-16T20:07:23.219Z,84.25
2023-03-16T20:09:50.944Z,77.50
2023-03-16T20:12:26.426Z,76.50
2023-03-16T20:14:54.094Z,96.50
2023-03-16T20:17:27.190Z,74.25
2023-03-16T20:19:54.980Z,67.50
2023-03-16T20:22:30.218Z,53.50
2023-03-16T20:24:58.416Z,45.25
2023-03-16T20:27:27.947Z,46.00
2023-03-16T20:29:55.107Z,40.00
2023-03-16T20:32:35.289Z,33.33
2023-03-16T20:35:02.185Z,58.75
2023-03-16T20:37:30.942Z,60.00
2023-03-16T20:39:59.212Z,60.25
2023-03-16T20:42:34.692Z,59.75
2023-03-16T20:45:02.058Z,54.50
2023-03-16T20:47:29.029Z,58.50
2023-03-16T20:50:00.391Z,51.25
2023-03-16T20:52:30.838Z,38.00
2023-03-16T20:54:58.150Z,33.67
2023-03-16T20:57:27.293Z,24.00
2023-03-16T20:59:55.574Z,21.00
2023-03-16T21:02:30.099Z,14.67
2023-03-16T21:04:59.012Z,14.00
2023-03-16T21:07:26.179Z,14.00
2023-03-16T21:09:53.515Z,12.33
2023-03-16T21:12:35.879Z,7.67
2023-03-16T21:15:16.677Z,14.00
2023-03-16T21:17:44.209Z,12.00
2023-03-16T21:20:20.068Z,14.33
2023-03-16T21:22:47.468Z,10.67
2023-03-16T21:25:23.549Z,6.33
2023-03-16T21:27:52.959Z,6.33
2023-03-16T21:30:25.975Z,30.67
2023-03-16T21:32:54.186Z,42.33
2023-03-16T21:35:25.040Z,32.67
2023-03-16T21:37:53.156Z,40.33
2023-03-16T21:40:22.551Z,33.00
2023-03-16T21:42:50.538Z,28.67
2023-03-16T21:45:17.635Z,48.75
2023-03-16T21:47:45.562Z,70.75
2023-03-16T21:50:22.482Z,73.25
2023-03-16T21:52:50.803Z,58.00
2023-03-16T21:55:29.498Z,60.00
2023-03-16T21:57:59.038Z,55.75
2023-03-16T22:00:29.312Z,70.00
2023-03-16T22:03:00.443Z,72.00
2023-03-16T22:05:38.015Z,61.00
2023-03-16T22:08:17.173Z,50.00
2023-03-16T22:10:44.417Z,45.00
2023-03-16T22:13:12.272Z,36.33
2023-03-16T22:15:41.709Z,11.00
2023-03-16T22:18:33.256Z,23.67
2023-03-16T22:21:02.430Z,33.00
2023-03-16T22:23:35.504Z,69.75
2023-03-16T22:26:08.558Z,72.50
2023-03-16T22:28:35.502Z,62.75
2023-03-16T22:31:04.695Z,52.00
2023-03-16T22:33:35.835Z,40.00
2023-03-16T22:36:09.609Z,33.67
2023-03-16T22:38:36.862Z,43.00
2023-03-16T22:41:04.118Z,29.00
2023-03-16T22:43:34.981Z,30.33
2023-03-16T22:46:02.009Z,20.33
2023-03-16T22:48:30.935Z,18.00
2023-03-16T22:51:04.688Z,18.67
2023-03-16T22:53:31.520Z,14.67
2023-03-16T22:55:59.341Z,42.33
2023-03-16T22:58:39.040Z,37.67
2023-03-16T23:01:17.544Z,35.67
2023-03-16T23:03:46.860Z,27.00
2023-03-16T23:06:26.812Z,22.67
2023-03-16T23:08:54.844Z,41.67
2023-03-16T23:11:36.057Z,53.50
2023-03-16T23:14:03.427Z,46.00
2023-03-16T23:16:35.414Z,30.33
2023-03-16T23:19:04.381Z,50.25
2023-03-16T23:21:32.735Z,71.25
2023-03-16T23:24:03.878Z,68.00
2023-03-16T23:26:33.012Z,57.00
2023-03-16T23:29:00.068Z,63.00
2023-03-16T23:31:27.843Z,53.75
2023-03-16T23:33:55.254Z,54.25
2023-03-16T23:36:24.905Z,60.00
2023-03-16T23:38:52.049Z,65.50
2023-03-16T23:41:23.504Z,61.50
2023-03-16T23:43:50.949Z,61.50
2023-03-16T23:46:20.958Z,61.25
2023-03-16T23:48:49.530Z,69.75
2023-03-16T23:51:24.700Z,70.00
2023-03-16T23:53:52.436Z,66.25
2023-03-16T23:56:19.919Z,63.25
2023-03-16T23:58:46.909Z,64.50
